Time;durP1;ratioP1;P1;durP2;ratioP2;P2;SDS_P1;SDS_P2;PMS_P1;PMS_P2;Temp;Humidity;BMP_temperature;BMP_pressure;BME280_temperature;BME280_humidity;BME280_pressure;Samples;Min_cycle;Max_cycle;Signal;HPM_P1;HPM_P2
2022/12/31 00:02:03;;;;;;;0.50;0.50;;;;;;;13.63;74.21;99371.81;10384550;28;20291;-85
2022/12/31 00:07:26;;;;;;;0.80;0.50;;;;;;;13.44;74.31;99367.63;10370227;28;20198;-85
2022/12/31 00:12:31;;;;;;;0.40;0.40;;;;;;;13.50;74.38;99360.56;10367317;28;20287;-85
2022/12/31 00:17:53;;;;;;;0.30;0.30;;;;;;;13.83;72.56;99365.13;10359820;28;20506;-85
2022/12/31 00:23:17;;;;;;;0.73;0.50;;;;;;;13.39;75.52;99365.06;10374951;28;20217;-85
2022/12/31 00:28:40;;;;;;;0.53;0.50;;;;;;;13.48;75.59;99365.72;10369129;28;20213;-86
2022/12/31 00:34:04;;;;;;;0.95;0.50;;;;;;;13.54;75.55;99375.59;10366244;28;20556;-86
2022/12/31 00:39:26;;;;;;;1.50;0.30;;;;;;;13.02;77.00;99391.72;10348265;28;20251;-85
2022/12/31 00:44:48;;;;;;;1.07;0.30;;;;;;;13.41;77.52;99392.88;10357296;28;20224;-86
2022/12/31 00:50:11;;;;;;;0.20;0.20;;;;;;;13.36;77.18;99379.88;10357497;28;20270;-85
2022/12/31 00:55:33;;;;;;;0.80;0.30;;;;;;;13.50;77.22;99385.09;10372118;28;20225;-86
2022/12/31 01:00:55;;;;;;;0.30;0.20;;;;;;;13.58;77.50;99372.88;10385377;28;20197;-86
2022/12/31 01:06:18;;;;;;;4.97;0.20;;;;;;;12.66;81.40;99353.97;10376512;28;20248;-85
2022/12/31 01:11:41;;;;;;;1.13;0.30;;;;;;;13.06;80.83;99358.81;10375978;28;20590;-86
2022/12/31 01:17:03;;;;;;;0.40;0.30;;;;;;;12.98;80.98;99334.47;10361271;28;20200;-86
2022/12/31 01:22:25;;;;;;;2.17;1.97;;;;;;;13.03;80.70;99325.78;10365802;28;20237;-86
2022/12/31 01:27:47;;;;;;;2.03;1.87;;;;;;;12.54;81.19;99323.00;10383334;28;20196;-85
2022/12/31 01:33:10;;;;;;;0.63;0.57;;;;;;;12.99;79.93;99305.97;10365705;28;20202;-86
2022/12/31 01:38:33;;;;;;;0.30;0.30;;;;;;;12.72;80.54;99301.94;10365678;28;20201;-86
2022/12/31 01:43:59;;;;;;;0.30;0.20;;;;;;;13.03;80.25;99308.91;10393071;28;20213;-85
2022/12/31 01:49:29;;;;;;;0.20;0.10;;;;;;;13.50;78.16;99301.41;10373973;28;20209;-86
2022/12/31 01:55:07;;;;;;;0.20;0.20;;;;;;;13.22;80.18;99303.41;10384034;28;20213;-87
2022/12/31 02:00:31;;;;;;;0.10;0.10;;;;;;;13.30;80.30;99285.56;10384624;28;20227;-86
2022/12/31 02:06:05;;;;;;;0.30;0.30;;;;;;;13.32;81.26;99294.44;10363806;28;20193;-84
2022/12/31 02:11:31;;;;;;;0.00;0.00;;;;;;;13.38;80.90;99273.28;10399453;28;20223;-86
2022/12/31 02:17:08;;;;;;;0.50;0.10;;;;;;;13.51;80.04;99290.94;10362668;28;20208;-85
2022/12/31 02:22:41;;;;;;;0.10;0.00;;;;;;;13.53;80.57;99299.88;10382966;28;20213;-85
2022/12/31 02:28:26;;;;;;;0.27;0.00;;;;;;;13.78;78.68;99311.84;10403463;28;20613;-85
2022/12/31 02:33:50;;;;;;;0.20;0.00;;;;;;;14.10;76.60;99302.19;10390658;28;20188;-86
2022/12/31 02:39:15;;;;;;;0.93;0.10;;;;;;;14.13;76.19;99280.91;10372676;28;20280;-87
2022/12/31 02:44:39;;;;;;;1.00;0.00;;;;;;;14.42;74.96;99274.78;10363322;28;20248;-85
2022/12/31 02:50:12;;;;;;;0.00;0.00;;;;;;;14.36;74.96;99286.72;10362821;28;20209;-87
2022/12/31 02:56:08;;;;;;;0.10;0.07;;;;;;;14.39;74.29;99281.16;10378464;28;20217;-86
2022/12/31 03:07:19;;;;;;;0.00;0.00;;;;;;;14.15;76.39;99284.19;10377078;28;20201;-86
2022/12/31 03:12:46;;;;;;;0.00;0.00;;;;;;;14.40;75.09;99284.78;10363977;28;20193;-87
2022/12/31 03:22:26;;;;;;;0.37;0.00;;;;;;;14.13;77.19;99295.84;10363165;28;20193;-87
2022/12/31 03:29:41;;;;;;;0.20;0.10;;;;;;;14.78;74.98;99309.50;10368149;28;20573;-86
2022/12/31 03:35:04;;;;;;;0.30;0.20;;;;;;;14.58;75.80;99334.06;10370924;28;20186;-87
2022/12/31 03:40:27;;;;;;;1.70;0.10;;;;;;;14.57;76.69;99332.41;10359865;28;20633;-87
2022/12/31 03:45:51;;;;;;;0.27;0.10;;;;;;;14.74;75.70;99332.00;10376536;28;20229;-87
2022/12/31 03:51:14;;;;;;;0.63;0.08;;;;;;;14.54;75.08;99335.97;10374074;28;20208;-88
2022/12/31 03:56:36;;;;;;;0.77;0.10;;;;;;;15.03;73.75;99327.00;10361300;28;20220;-88
2022/12/31 04:02:02;;;;;;;0.10;0.00;;;;;;;15.05;73.69;99335.91;10367423;28;20209;-87
2022/12/31 04:07:24;;;;;;;0.77;0.10;;;;;;;14.53;72.58;99320.22;10361057;28;20208;-87
2022/12/31 04:12:46;;;;;;;0.67;0.00;;;;;;;15.47;70.77;99327.56;10377975;28;20193;-88
2022/12/31 04:18:08;;;;;;;0.73;0.10;;;;;;;15.62;69.23;99313.34;10378470;28;20197;-87
2022/12/31 04:23:30;;;;;;;0.27;0.10;;;;;;;14.95;71.63;99318.38;10364961;28;20209;-87
2022/12/31 04:28:52;;;;;;;0.52;0.10;;;;;;;15.90;67.41;99320.72;10391307;28;20216;-87
2022/12/31 04:34:14;;;;;;;1.43;0.00;;;;;;;15.55;69.59;99321.66;10372879;28;20194;-87
2022/12/31 04:39:37;;;;;;;0.22;0.00;;;;;;;15.56;68.04;99328.97;10389708;28;20586;-86
2022/12/31 04:44:59;;;;;;;0.85;0.10;;;;;;;15.24;72.95;99345.25;10363805;28;20259;-86
2022/12/31 04:50:21;;;;;;;1.13;0.03;;;;;;;15.16;72.43;99339.78;10385349;28;20201;-88
2022/12/31 04:55:44;;;;;;;0.90;0.00;;;;;;;15.41;70.98;99349.66;10358063;28;20220;-87
2022/12/31 05:01:07;;;;;;;0.85;0.13;;;;;;;15.24;69.81;99352.91;10377377;28;20476;-88
2022/12/31 05:06:29;;;;;;;0.20;0.00;;;;;;;15.45;68.52;99350.53;10379900;28;20239;-85
2022/12/31 05:11:51;;;;;;;1.08;0.05;;;;;;;16.15;66.11;99338.16;10373650;28;20197;-85
2022/12/31 05:17:14;;;;;;;0.83;0.10;;;;;;;15.34;67.67;99349.47;10347392;28;20259;-85
2022/12/31 05:22:36;;;;;;;0.22;0.00;;;;;;;15.93;65.71;99328.44;10356321;28;20225;-86
2022/12/31 05:27:58;;;;;;;1.45;0.28;;;;;;;15.61;66.56;99339.97;10371341;28;20197;-85
2022/12/31 05:33:21;;;;;;;1.50;0.10;;;;;;;16.05;64.55;99339.56;10384192;28;20220;-85
2022/12/31 05:38:43;;;;;;;1.60;0.10;;;;;;;15.99;64.10;99333.44;10361049;28;20255;-85
2022/12/31 05:44:06;;;;;;;0.52;0.10;;;;;;;16.27;63.05;99344.47;10372758;28;20518;-85
2022/12/31 05:49:28;;;;;;;0.00;0.00;;;;;;;16.22;63.49;99360.94;10387237;28;20193;-86
2022/12/31 05:54:50;;;;;;;2.08;0.10;;;;;;;16.07;63.46;99354.16;10364257;28;20220;-85
2022/12/31 06:00:13;;;;;;;0.63;0.10;;;;;;;16.48;62.83;99363.00;10374441;28;20194;-84
2022/12/31 06:05:38;;;;;;;0.52;0.00;;;;;;;16.34;62.75;99367.22;10365241;28;20217;-85
2022/12/31 06:11:01;;;;;;;3.42;0.10;;;;;;;16.30;62.84;99380.47;10366753;28;20221;-85
2022/12/31 06:16:23;;;;;;;1.10;0.10;;;;;;;16.14;62.97;99393.91;10359445;28;20247;-85
2022/12/31 06:21:45;;;;;;;0.65;0.10;;;;;;;16.49;61.89;99387.28;10369822;28;20228;-85
2022/12/31 06:27:08;;;;;;;1.07;0.10;;;;;;;16.39;62.11;99414.22;10380729;28;20197;-86
2022/12/31 06:32:30;;;;;;;0.10;0.03;;;;;;;15.96;64.24;99413.38;10376537;28;20193;-85
2022/12/31 06:37:52;;;;;;;1.98;0.08;;;;;;;16.34;62.31;99426.66;10364684;28;20609;-85
2022/12/31 06:43:14;;;;;;;0.30;0.10;;;;;;;16.01;63.53;99415.91;10358360;28;20217;-85
2022/12/31 06:48:37;;;;;;;0.70;0.20;;;;;;;16.09;63.68;99431.00;10353981;28;20498;-86
2022/12/31 06:53:59;;;;;;;2.17;0.20;;;;;;;16.58;61.89;99418.97;10371576;28;20197;-86
2022/12/31 06:59:27;;;;;;;0.40;0.20;;;;;;;16.61;61.75;99441.69;10374751;28;20490;-87
2022/12/31 07:05:05;;;;;;;1.17;0.17;;;;;;;16.06;63.25;99454.38;10371575;28;20282;-88
2022/12/31 07:10:42;;;;;;;2.13;0.13;;;;;;;16.65;61.68;99438.94;10359576;28;20205;-86
2022/12/31 07:16:29;;;;;;;2.55;0.40;;;;;;;16.09;63.85;99458.47;10377607;28;20216;-85
2022/12/31 07:21:53;;;;;;;0.90;0.20;;;;;;;16.57;61.68;99466.28;10370607;28;20196;-86
2022/12/31 07:27:57;;;;;;;1.30;0.20;;;;;;;16.34;62.19;99466.28;10351050;28;20263;-85
2022/12/31 07:33:45;;;;;;;0.93;0.20;;;;;;;16.33;61.48;99467.47;10340174;28;20201;-85
2022/12/31 07:39:23;;;;;;;0.43;0.15;;;;;;;16.22;61.93;99479.78;10362366;28;20248;-83
2022/12/31 07:44:53;;;;;;;1.38;0.22;;;;;;;16.44;61.45;99464.81;10382376;28;20473;-83
2022/12/31 07:50:16;;;;;;;1.35;0.30;;;;;;;16.87;59.98;99480.56;10369654;28;20610;-86
2022/12/31 07:55:38;;;;;;;1.38;0.30;;;;;;;16.66;60.61;99474.53;10385156;28;20229;-84
2022/12/31 08:01:01;;;;;;;1.27;0.20;;;;;;;16.69;59.76;99488.75;10378260;28;20239;-84
2022/12/31 08:06:38;;;;;;;0.80;0.10;;;;;;;16.62;60.34;99490.66;10357047;28;20244;-83
2022/12/31 08:12:01;;;;;;;1.25;0.10;;;;;;;16.52;60.41;99494.94;10350446;28;20224;-83
2022/12/31 08:17:23;;;;;;;0.83;0.30;;;;;;;16.99;58.55;99497.41;10352455;28;20883;-84
2022/12/31 08:22:54;;;;;;;1.08;0.22;;;;;;;16.59;59.02;99508.38;10348175;28;20295;-83
2022/12/31 08:28:25;;;;;;;1.17;0.20;;;;;;;17.22;57.56;99510.72;10375325;28;20282;-84
2022/12/31 08:33:50;;;;;;;0.60;0.22;;;;;;;16.90;58.38;99519.47;10376932;28;20217;-84
2022/12/31 08:40:05;;;;;;;0.88;0.17;;;;;;;16.93;57.05;99515.91;10368196;28;20635;-84
2022/12/31 08:45:32;;;;;;;3.45;0.95;;;;;;;17.50;55.82;99527.34;10343342;28;20648;-85
2022/12/31 08:50:55;;;;;;;1.23;0.30;;;;;;;17.19;56.47;99517.16;10348667;28;20288;-84
2022/12/31 08:56:55;;;;;;;0.95;0.10;;;;;;;17.46;55.55;99539.44;10328645;28;20237;-85
2022/12/31 09:02:23;;;;;;;1.30;0.35;;;;;;;16.69;57.87;99551.06;10351069;28;20237;-85
2022/12/31 09:08:15;;;;;;;1.02;0.20;;;;;;;17.18;56.29;99538.19;10356998;28;20347;-84
2022/12/31 09:13:49;;;;;;;1.15;0.10;;;;;;;17.16;56.35;99534.91;10337936;28;20229;-83
2022/12/31 09:19:12;;;;;;;3.25;0.50;;;;;;;16.90;57.27;99536.47;10345271;28;20229;-84
2022/12/31 09:24:34;;;;;;;1.85;0.25;;;;;;;16.59;57.68;99574.31;10343703;28;20582;-82
2022/12/31 09:30:05;;;;;;;5.05;0.77;;;;;;;17.35;55.54;99554.66;10347817;28;20283;-84
2022/12/31 09:35:36;;;;;;;0.63;0.20;;;;;;;17.04;56.33;99570.75;10375873;28;20240;-84
2022/12/31 09:41:12;;;;;;;2.05;0.30;;;;;;;17.41;55.34;99592.84;10363017;28;20253;-84
2022/12/31 09:47:05;;;;;;;1.73;0.30;;;;;;;17.30;55.59;99604.00;10359602;28;20249;-85
2022/12/31 09:52:46;;;;;;;1.60;0.28;;;;;;;17.18;56.15;99635.38;10351218;28;20225;-84
2022/12/31 09:58:12;;;;;;;4.15;0.43;;;;;;;17.36;56.00;99652.69;10360039;28;20533;-85
2022/12/31 10:04:01;;;;;;;2.25;0.28;;;;;;;17.06;57.08;99650.53;10369237;28;20306;-83
2022/12/31 10:10:03;;;;;;;1.92;0.55;;;;;;;17.20;56.74;99643.50;10362297;28;20236;-83
2022/12/31 10:15:34;;;;;;;3.95;0.38;;;;;;;17.43;56.24;99647.16;10353117;28;20228;-82
2022/12/31 10:21:09;;;;;;;2.63;0.43;;;;;;;17.26;56.55;99681.66;10358166;28;20221;-84
2022/12/31 10:26:35;;;;;;;3.25;0.47;;;;;;;17.12;56.30;99658.72;10364347;28;20395;-84
2022/12/31 10:32:16;;;;;;;3.17;0.25;;;;;;;17.82;54.19;99669.72;10355819;28;20237;-84
2022/12/31 10:37:48;;;;;;;3.33;0.30;;;;;;;17.57;55.12;99658.75;10364160;28;20535;-84
2022/12/31 10:43:13;;;;;;;2.80;0.30;;;;;;;16.97;57.20;99657.59;10362295;28;20244;-84
2022/12/31 10:48:47;;;;;;;3.22;0.40;;;;;;;17.62;55.11;99683.09;10344249;28;20247;-85
2022/12/31 10:54:14;;;;;;;3.10;0.38;;;;;;;17.14;56.36;99673.34;10340725;28;20261;-86
2022/12/31 11:00:08;;;;;;;0.57;0.32;;;;;;;17.69;54.52;99677.56;10361828;28;20275;-84
2022/12/31 11:05:59;;;;;;;5.53;0.60;;;;;;;17.80;54.13;99656.72;10364948;28;20657;-86
2022/12/31 11:11:40;;;;;;;0.98;0.32;;;;;;;17.78;54.39;99642.09;10360389;28;20267;-85
2022/12/31 11:17:09;;;;;;;2.25;0.50;;;;;;;17.67;55.12;99635.41;10354336;28;20302;-84
2022/12/31 11:22:31;;;;;;;2.40;0.63;;;;;;;18.36;52.64;99638.91;10352899;28;20206;-84
2022/12/31 11:27:56;;;;;;;5.00;0.57;;;;;;;17.96;53.95;99641.56;10358798;28;20217;-80
2022/12/31 11:33:47;;;;;;;4.50;0.40;;;;;;;17.85;54.02;99651.94;10357143;28;20225;-80
2022/12/31 11:39:32;;;;;;;2.53;0.40;;;;;;;17.58;55.15;99636.88;10365837;28;20346;-83
2022/12/31 11:45:03;;;;;;;1.40;0.30;;;;;;;17.42;55.59;99668.19;10375482;28;20240;-80
2022/12/31 11:50:47;;;;;;;1.30;0.52;;;;;;;17.91;53.54;99675.94;10366111;28;20228;-84
2022/12/31 11:56:19;;;;;;;6.00;0.65;;;;;;;17.42;55.36;99668.19;10361217;28;20244;-85
2022/12/31 12:01:47;;;;;;;1.77;0.40;;;;;;;18.10;53.58;99647.47;10344773;28;20241;-85
2022/12/31 12:07:13;;;;;;;2.50;0.30;;;;;;;18.00;52.81;99653.75;10346941;28;20244;-85
2022/12/31 12:12:39;;;;;;;1.10;0.40;;;;;;;17.46;54.04;99669.06;10347615;28;20240;-83
2022/12/31 12:18:27;;;;;;;4.03;0.60;;;;;;;17.37;54.17;99706.19;10329418;28;20229;-85
2022/12/31 12:24:00;;;;;;;3.67;0.30;;;;;;;17.45;54.11;99684.47;10356667;28;20249;-86
2022/12/31 12:29:27;;;;;;;2.25;0.47;;;;;;;17.54;55.54;99701.22;10357164;28;20602;-84
2022/12/31 12:34:49;;;;;;;1.88;0.30;;;;;;;17.63;57.15;99699.75;10350216;28;20747;-85
2022/12/31 12:40:22;;;;;;;3.20;0.70;;;;;;;17.37;57.38;99699.69;10357194;28;20564;-87
2022/12/31 12:45:46;;;;;;;5.03;0.50;;;;;;;17.06;59.58;99697.91;10351100;28;20241;-84
2022/12/31 12:51:38;;;;;;;2.88;0.60;;;;;;;17.32;60.76;99685.84;10356677;28;20286;-84
2022/12/31 12:57:21;;;;;;;2.63;0.83;;;;;;;16.92;63.12;99684.22;10351538;28;20288;-84
2022/12/31 13:02:53;;;;;;;3.22;1.63;;;;;;;16.89;62.70;99707.63;10369651;28;20251;-87
2022/12/31 13:08:31;;;;;;;3.67;0.80;;;;;;;16.91;62.89;99710.94;10367724;28;20232;-85
2022/12/31 13:14:02;;;;;;;2.70;0.60;;;;;;;16.42;62.93;99704.19;10357764;28;20306;-82
2022/12/31 13:19:49;;;;;;;4.18;0.93;;;;;;;16.99;60.20;99707.06;10373299;28;20216;-88
2022/12/31 13:25:20;;;;;;;3.33;0.63;;;;;;;16.65;60.47;99722.09;10360654;28;20298;-84
2022/12/31 13:30:48;;;;;;;2.25;0.93;;;;;;;16.43;60.16;99725.63;10341674;28;20844;-84
2022/12/31 13:36:16;;;;;;;2.85;0.75;;;;;;;17.32;58.19;99717.03;10357565;28;20229;-85
2022/12/31 13:41:45;;;;;;;3.38;0.98;;;;;;;17.28;59.40;99693.44;10339604;28;20745;-84
2022/12/31 13:47:15;;;;;;;5.03;0.70;;;;;;;16.89;59.77;99699.13;10358077;28;20319;-83
2022/12/31 13:52:44;;;;;;;3.22;0.75;;;;;;;16.51;59.64;99714.13;10359265;28;20214;-82
2022/12/31 13:58:46;;;;;;;4.57;0.52;;;;;;;17.35;57.70;99696.41;10367268;28;20241;-84
2022/12/31 14:04:24;;;;;;;2.72;0.60;;;;;;;16.82;57.79;99703.81;10286088;28;20744;-85
2022/12/31 14:09:46;;;;;;;1.65;0.50;;;;;;;16.71;56.70;99720.59;10375142;28;20316;-84
2022/12/31 14:15:22;;;;;;;3.42;0.60;;;;;;;17.15;53.86;99714.66;10378409;28;20221;-84
2022/12/31 14:20:57;;;;;;;2.97;0.50;;;;;;;17.22;54.08;99709.09;10366183;28;20608;-87
2022/12/31 14:26:30;;;;;;;2.93;0.60;;;;;;;17.16;53.82;99714.28;10352034;28;20315;-85
2022/12/31 14:32:07;;;;;;;1.73;0.50;;;;;;;17.37;52.98;99723.19;10357602;28;20225;-86
2022/12/31 14:37:44;;;;;;;1.85;0.60;;;;;;;17.33;52.63;99715.84;10355697;28;20282;-84
2022/12/31 14:43:29;;;;;;;4.53;0.47;;;;;;;16.61;54.40;99729.69;10365799;28;20317;-87
2022/12/31 14:49:30;;;;;;;2.85;0.55;;;;;;;16.98;53.70;99694.06;10366913;28;20566;-87
2022/12/31 14:55:21;;;;;;;3.63;0.90;;;;;;;16.69;55.42;99731.47;10371186;28;20662;-84
2022/12/31 15:00:53;;;;;;;4.78;0.82;;;;;;;16.66;55.80;99727.41;10370199;28;20288;-85
2022/12/31 15:06:22;;;;;;;4.90;1.00;;;;;;;16.73;56.53;99744.53;10353794;28;20276;-87
2022/12/31 15:12:04;;;;;;;2.35;0.80;;;;;;;16.31;57.29;99744.38;10359005;28;20294;-86
2022/12/31 15:17:51;;;;;;;2.22;0.75;;;;;;;16.44;58.22;99739.41;10356178;28;20286;-87
2022/12/31 15:23:20;;;;;;;3.88;0.75;;;;;;;16.58;57.51;99741.75;10357285;28;20236;-86
2022/12/31 15:28:42;;;;;;;2.72;0.70;;;;;;;16.05;59.77;99746.94;10349631;28;20286;-86
2022/12/31 15:34:06;;;;;;;1.52;0.90;;;;;;;16.31;59.31;99726.56;10365698;28;20302;-87
2022/12/31 15:39:38;;;;;;;3.83;0.60;;;;;;;16.18;59.57;99759.81;10357900;28;20252;-87
2022/12/31 15:45:05;;;;;;;3.28;0.90;;;;;;;16.38;58.55;99770.03;10339453;28;20246;-88
2022/12/31 15:50:28;;;;;;;3.10;0.52;;;;;;;16.49;58.91;99749.63;10325773;28;20260;-84
2022/12/31 15:55:52;;;;;;;5.97;1.00;;;;;;;16.25;58.62;99754.34;10347849;28;20598;-83
2022/12/31 16:01:21;;;;;;;3.85;0.70;;;;;;;17.12;55.66;99749.41;10352327;28;20256;-85
2022/12/31 16:06:43;;;;;;;5.53;0.60;;;;;;;16.45;57.50;99743.06;10359028;28;20230;-82
2022/12/31 16:12:11;;;;;;;4.55;2.03;;;;;;;16.47;57.43;99746.34;10365770;28;20263;-87
2022/12/31 16:17:35;;;;;;;4.50;1.10;;;;;;;16.84;55.27;99753.25;10354019;28;20546;-84
2022/12/31 16:23:00;;;;;;;4.78;0.90;;;;;;;16.94;55.07;99754.69;10363687;28;20193;-84
2022/12/31 16:28:29;;;;;;;3.97;1.13;;;;;;;16.70;55.10;99753.75;10373784;28;20790;-87
2022/12/31 16:33:51;;;;;;;3.95;1.02;;;;;;;16.48;56.30;99750.81;10369878;28;20201;-84
2022/12/31 16:39:25;;;;;;;1.63;0.50;;;;;;;16.39;56.19;99746.19;10376105;28;20315;-84
2022/12/31 16:44:50;;;;;;;1.48;0.57;;;;;;;16.68;55.21;99739.16;10373912;28;20217;-86
2022/12/31 16:50:17;;;;;;;5.05;0.90;;;;;;;16.07;56.56;99744.56;10346913;28;21505;-84
2022/12/31 16:55:40;;;;;;;2.58;0.73;;;;;;;15.95;56.85;99744.69;10355772;28;20225;-86
2022/12/31 17:01:12;;;;;;;1.75;0.52;;;;;;;16.53;54.16;99751.38;10391252;28;20243;-84
2022/12/31 17:06:34;;;;;;;2.67;0.80;;;;;;;15.92;55.80;99719.94;10360063;28;20245;-86
2022/12/31 17:12:06;;;;;;;2.28;1.35;;;;;;;;;;10354130;28;20708;-83
2022/12/31 17:17:29;;;;;;;1.45;0.77;;;;;;;16.52;53.92;99726.25;10360888;28;20857;-85
2022/12/31 17:22:54;;;;;;;5.15;1.95;;;;;;;15.79;55.17;99722.06;10355177;28;20675;-82
2022/12/31 17:28:21;;;;;;;4.18;1.17;;;;;;;16.37;54.24;99731.59;10338939;28;20252;-81
2022/12/31 17:33:44;;;;;;;2.50;0.90;;;;;;;15.77;55.47;99734.94;10357798;28;20250;-83
2022/12/31 17:39:25;;;;;;;5.38;2.00;;;;;;;15.77;54.88;99709.50;10354650;28;20256;-87
2022/12/31 17:44:47;;;;;;;0.63;0.60;;;;;;;16.27;52.43;99706.69;10362833;28;20217;-85
2022/12/31 17:50:18;;;;;;;3.13;1.45;;;;;;;16.11;53.02;99700.22;10375282;28;20208;-85
2022/12/31 17:55:44;;;;;;;5.17;1.50;;;;;;;16.27;52.03;99703.88;10399030;28;20224;-84
2022/12/31 18:01:07;;;;;;;2.83;0.80;;;;;;;16.14;51.53;99710.81;10363634;28;20668;-87
2022/12/31 18:06:29;;;;;;;1.50;0.80;;;;;;;15.90;51.56;99719.53;10374721;28;20248;-82
2022/12/31 18:11:51;;;;;;;2.85;1.00;;;;;;;15.81;51.89;99718.88;10375023;28;20201;-82
2022/12/31 18:17:15;;;;;;;2.45;0.80;;;;;;;15.80;51.28;99706.72;10376664;28;20608;-84
2022/12/31 18:22:38;;;;;;;2.70;1.33;;;;;;;16.34;49.74;99709.69;10365924;28;20229;-83
2022/12/31 18:28:01;;;;;;;1.92;0.93;;;;;;;15.96;50.86;99696.22;10363431;28;20302;-86
2022/12/31 18:33:24;;;;;;;2.88;1.40;;;;;;;16.02;50.21;99691.13;10356604;28;20741;-85
2022/12/31 18:38:47;;;;;;;6.32;1.88;;;;;;;15.91;49.74;99678.72;10368894;28;20253;-83
2022/12/31 18:44:11;;;;;;;5.80;3.33;;;;;;;16.04;48.54;99695.19;10359518;28;20263;-84
2022/12/31 18:49:33;;;;;;;4.05;2.03;;;;;;;15.85;48.86;99702.81;10370522;28;20222;-81
2022/12/31 18:54:55;;;;;;;1.65;1.00;;;;;;;15.57;48.72;99703.75;10357242;28;20314;-83
2022/12/31 19:00:17;;;;;;;5.47;3.75;;;;;;;15.93;47.79;99687.66;10341788;28;20676;-85
2022/12/31 19:05:40;;;;;;;2.95;0.85;;;;;;;15.91;47.41;99684.38;10360641;28;20252;-82
2022/12/31 19:11:02;;;;;;;8.00;3.20;;;;;;;15.91;47.02;99695.69;10357053;28;20226;-87
2022/12/31 19:16:24;;;;;;;2.28;0.70;;;;;;;16.15;46.45;99694.66;10363653;28;20224;-85
2022/12/31 19:21:47;;;;;;;2.35;0.73;;;;;;;15.67;46.39;99700.34;10361242;28;20613;-83
2022/12/31 19:27:13;;;;;;;6.07;1.48;;;;;;;16.35;45.15;99704.84;10334912;28;20252;-86
2022/12/31 19:32:35;;;;;;;8.35;1.52;;;;;;;15.85;45.71;99708.47;10362745;28;20213;-84
2022/12/31 19:37:58;;;;;;;4.30;1.52;;;;;;;15.65;46.14;99711.22;10369654;28;20581;-87
2022/12/31 19:43:22;;;;;;;5.43;1.70;;;;;;;15.89;44.54;99715.06;10369319;28;20252;-84
2022/12/31 19:48:44;;;;;;;5.60;2.30;;;;;;;16.06;44.35;99708.97;10362102;28;20266;-84
2022/12/31 19:54:07;;;;;;;8.13;1.92;;;;;;;16.01;44.02;99724.25;10381310;28;20281;-85
2022/12/31 19:59:29;;;;;;;5.43;1.48;;;;;;;16.19;42.66;99729.53;10348972;28;20256;-85
2022/12/31 20:04:52;;;;;;;4.70;1.40;;;;;;;16.30;43.06;99739.91;10326553;28;20744;-83
2022/12/31 20:10:14;;;;;;;2.60;1.20;;;;;;;16.08;42.36;99751.88;10356527;28;20232;-88
2022/12/31 20:15:38;;;;;;;6.38;2.58;;;;;;;16.29;41.81;99746.75;10355953;28;20224;-85
2022/12/31 20:21:00;;;;;;;5.25;1.27;;;;;;;16.22;41.68;99752.25;10358704;28;20279;-86
2022/12/31 20:26:23;;;;;;;5.93;2.53;;;;;;;16.44;41.27;99762.06;10351268;28;20629;-87
2022/12/31 20:31:46;;;;;;;6.43;1.77;;;;;;;15.91;42.13;99774.88;10345282;28;21390;-86
2022/12/31 20:37:08;;;;;;;7.30;1.63;;;;;;;16.36;40.85;99772.41;10360682;28;20220;-86
2022/12/31 20:42:30;;;;;;;3.43;1.67;;;;;;;16.38;40.93;99803.19;10349907;28;20314;-85
2022/12/31 20:47:52;;;;;;;4.53;1.27;;;;;;;16.58;39.88;99804.03;10356783;28;20329;-82
2022/12/31 20:53:14;;;;;;;5.80;1.65;;;;;;;16.44;40.14;99812.19;10375250;28;20660;-84
2022/12/31 20:58:36;;;;;;;7.13;2.07;;;;;;;16.51;39.24;99809.56;10379299;28;20247;-80
2022/12/31 21:03:59;;;;;;;10.60;2.80;;;;;;;16.37;39.69;99813.69;10369984;28;20201;-85
2022/12/31 21:09:22;;;;;;;9.95;2.47;;;;;;;16.57;39.71;99825.06;10362107;28;20248;-88
2022/12/31 21:14:44;;;;;;;7.00;2.35;;;;;;;15.83;40.29;99815.47;10375812;28;20228;-88
2022/12/31 21:20:07;;;;;;;6.25;1.88;;;;;;;16.98;38.43;99813.06;10370311;28;20287;-83
2022/12/31 21:25:30;;;;;;;4.50;1.20;;;;;;;16.49;39.07;99824.06;10371029;28;20253;-86
2022/12/31 21:31:00;;;;;;;6.13;1.95;;;;;;;16.40;39.99;99829.13;10370394;28;20224;-85
2022/12/31 21:36:22;;;;;;;10.88;1.90;;;;;;;16.96;38.05;99840.94;10366927;28;20200;-86
2022/12/31 21:41:50;;;;;;;8.10;1.60;;;;;;;16.26;40.32;99837.25;10377848;28;20582;-83
2022/12/31 21:52:54;;;;;;;8.57;1.70;;;;;;;16.63;38.59;99851.91;10370277;28;20493;-84
2022/12/31 21:58:16;;;;;;;8.35;1.83;;;;;;;16.79;38.34;99860.38;10369185;28;20641;-83
2022/12/31 22:03:39;;;;;;;8.90;2.03;;;;;;;16.99;37.90;99860.06;10367003;28;20228;-81
2022/12/31 22:09:01;;;;;;;7.20;2.05;;;;;;;16.96;37.65;99857.94;10367233;28;20244;-81
2022/12/31 22:14:23;;;;;;;8.00;1.90;;;;;;;16.62;38.73;99862.41;10349550;28;20217;-83
2022/12/31 22:19:45;;;;;;;10.32;4.55;;;;;;;16.78;38.70;99859.56;10363539;28;20225;-81
2022/12/31 22:25:08;;;;;;;9.32;2.53;;;;;;;16.57;38.44;99864.69;10364033;28;20228;-82
2022/12/31 22:30:30;;;;;;;2.95;1.40;;;;;;;16.59;38.69;99876.47;10376345;28;20229;-84
2022/12/31 22:35:59;;;;;;;4.72;2.28;;;;;;;16.45;38.76;99885.44;10370104;28;20495;-81
2022/12/31 22:41:23;;;;;;;6.65;2.10;;;;;;;16.72;39.07;99892.16;10381956;28;20265;-81
2022/12/31 22:46:47;;;;;;;6.53;1.27;;;;;;;16.61;38.74;99906.06;10370674;28;20280;-83
2022/12/31 22:52:10;;;;;;;6.45;1.70;;;;;;;16.62;39.22;99887.91;10366326;28;20736;-83
2022/12/31 22:57:32;;;;;;;5.45;1.77;;;;;;;16.33;39.95;99897.69;10371908;28;20252;-81
2022/12/31 23:02:54;;;;;;;11.40;6.53;;;;;;;16.83;38.39;99895.25;10380296;28;21013;-82
2022/12/31 23:08:20;;;;;;;130.55;78.32;;;;;;;16.66;39.08;99914.31;10373466;28;20683;-84
2022/12/31 23:25:12;;;;;;;48.42;32.88;;;;;;;16.70;38.97;99880.38;10353168;28;20559;-85
2022/12/31 23:30:39;;;;;;;30.10;22.85;;;;;;;16.71;38.79;99887.69;10372434;28;20263;-81
2022/12/31 23:36:03;;;;;;;33.78;20.52;;;;;;;16.59;39.47;99894.28;10278687;28;20252;-81
2022/12/31 23:41:26;;;;;;;17.20;9.73;;;;;;;16.64;38.59;99882.69;10328802;28;20523;-86
2022/12/31 23:46:48;;;;;;;21.45;11.73;;;;;;;16.48;38.82;99892.38;10328146;28;20253;-83
2022/12/31 23:52:10;;;;;;;16.05;9.77;;;;;;;16.54;38.40;99888.94;10323819;28;20256;-78
2022/12/31 23:57:32;;;;;;;13.57;9.75;;;;;;;16.56;38.04;99899.84;10319159;28;20257;-80
